createdAt,value
2019-01-02T00:01:31.023Z,0.70
2019-01-02T00:04:08.128Z,0.37
2019-01-02T00:09:24.951Z,0.77
2019-01-02T00:11:53.628Z,0.73
2019-01-02T00:14:22.671Z,1.70
2019-01-02T00:16:51.507Z,0.85
2019-01-02T00:19:20.775Z,0.40
2019-01-02T00:21:49.435Z,0.67
2019-01-02T00:24:18.506Z,0.70
2019-01-02T00:26:47.115Z,0.80
2019-01-02T00:29:15.934Z,1.47
2019-01-02T00:31:44.811Z,0.83
2019-01-02T00:34:13.427Z,0.73
2019-01-02T00:36:42.027Z,0.70
2019-01-02T00:39:10.775Z,1.20
2019-01-02T00:41:39.711Z,1.20
2019-01-02T00:44:08.427Z,0.60
2019-01-02T00:46:37.139Z,0.40
2019-01-02T00:49:05.799Z,0.50
2019-01-02T00:51:34.387Z,0.50
2019-01-02T00:54:03.347Z,0.77
2019-01-02T00:56:32.435Z,0.90
2019-01-02T00:59:01.110Z,0.67
2019-01-02T01:01:29.750Z,0.50
2019-01-02T01:03:59.238Z,0.40
2019-01-02T01:06:27.899Z,0.57
2019-01-02T01:08:56.887Z,0.70
2019-01-02T01:11:25.479Z,0.83
2019-01-02T01:13:54.146Z,0.60
2019-01-02T01:16:23.295Z,0.50
2019-01-02T01:18:51.918Z,0.60
2019-01-02T01:21:20.546Z,0.60
2019-01-02T01:23:49.218Z,0.87
2019-01-02T01:26:17.940Z,1.23
2019-01-02T01:28:46.890Z,0.63
2019-01-02T01:31:15.484Z,0.40
2019-01-02T01:33:44.430Z,0.70
2019-01-02T01:36:13.135Z,0.62
2019-01-02T01:38:41.774Z,0.27
2019-01-02T01:41:11.194Z,0.70
2019-01-02T01:43:39.911Z,0.57
2019-01-02T01:46:08.457Z,0.80
2019-01-02T01:48:37.131Z,1.17
2019-01-02T01:51:05.710Z,0.47
2019-01-02T01:53:34.318Z,0.50
2019-01-02T01:56:02.962Z,0.50
2019-01-02T01:58:31.567Z,0.50
2019-01-02T02:01:00.282Z,0.70
2019-01-02T02:03:28.914Z,0.72
2019-01-02T02:05:57.570Z,0.60
2019-01-02T02:08:26.154Z,0.40
2019-01-02T02:10:54.774Z,1.43
2019-01-02T02:13:23.390Z,0.37
2019-01-02T02:15:51.966Z,0.43
2019-01-02T02:18:20.526Z,0.67
2019-01-02T02:20:49.566Z,0.60
2019-01-02T02:23:18.282Z,0.80
2019-01-02T02:25:47.606Z,0.70
2019-01-02T02:28:16.308Z,0.43
2019-01-02T02:30:44.906Z,0.70
2019-01-02T02:33:13.710Z,0.40
2019-01-02T02:35:42.666Z,0.60
2019-01-02T02:38:11.642Z,0.37
2019-01-02T02:40:40.346Z,0.40
2019-01-02T02:43:09.514Z,0.70
2019-01-02T02:45:38.338Z,0.73
2019-01-02T02:48:07.289Z,0.53
2019-01-02T02:50:35.913Z,0.40
2019-01-02T02:53:05.191Z,0.70
2019-01-02T02:55:33.799Z,0.47
2019-01-02T02:58:02.437Z,0.55
2019-01-02T03:00:31.326Z,0.57
2019-01-02T03:02:59.891Z,0.60
2019-01-02T03:05:28.797Z,0.40
2019-01-02T03:07:57.432Z,0.70
2019-01-02T03:10:26.197Z,0.77
2019-01-02T03:12:55.345Z,0.57
2019-01-02T03:15:23.998Z,0.60
2019-01-02T03:17:52.581Z,0.57
2019-01-02T03:20:21.188Z,1.47
2019-01-02T03:22:49.760Z,0.50
2019-01-02T03:25:18.693Z,0.47
2019-01-02T03:27:47.312Z,0.78
2019-01-02T03:30:18.659Z,0.50
2019-01-02T03:32:47.253Z,0.70
2019-01-02T03:35:16.172Z,0.73
2019-01-02T03:37:46.360Z,0.40
2019-01-02T03:40:15.233Z,0.60
2019-01-02T03:42:43.793Z,0.53
2019-01-02T03:45:14.733Z,0.55
2019-01-02T03:47:43.318Z,0.80
2019-01-02T03:50:14.991Z,1.00
2019-01-02T03:52:43.801Z,0.70
2019-01-02T03:55:12.977Z,1.15
2019-01-02T03:57:41.894Z,1.07
2019-01-02T04:00:13.049Z,1.00
2019-01-02T04:02:41.625Z,1.27
2019-01-02T04:05:11.589Z,1.30
2019-01-02T04:07:41.645Z,0.60
2019-01-02T04:10:12.233Z,1.00
2019-01-02T04:12:41.101Z,0.80
2019-01-02T04:15:09.681Z,1.10
2019-01-02T04:17:38.397Z,1.13
2019-01-02T04:20:06.993Z,0.83
2019-01-02T04:22:35.817Z,0.93
2019-01-02T04:25:04.980Z,0.80
2019-01-02T04:27:33.823Z,1.13
2019-01-02T04:30:02.389Z,0.80
2019-01-02T04:32:30.933Z,0.90
2019-01-02T04:34:59.461Z,0.60
2019-01-02T04:37:28.073Z,0.97
2019-01-02T04:39:56.861Z,1.20
2019-01-02T04:42:25.401Z,0.67
2019-01-02T04:44:53.961Z,1.00
2019-01-02T04:47:22.486Z,0.60
2019-01-02T04:49:51.273Z,1.20
2019-01-02T04:52:20.232Z,0.97
2019-01-02T04:54:48.761Z,0.80
2019-01-02T04:57:17.297Z,1.42
2019-01-02T04:59:45.921Z,1.23
2019-01-02T05:02:14.515Z,0.80
2019-01-02T05:04:43.158Z,0.90
2019-01-02T05:07:11.753Z,0.70
2019-01-02T05:09:40.501Z,0.70
2019-01-02T05:12:09.317Z,0.83
2019-01-02T05:14:38.549Z,1.03
2019-01-02T05:17:07.117Z,1.07
2019-01-02T05:19:35.924Z,1.50
2019-01-02T05:22:05.150Z,1.10
2019-01-02T05:24:33.925Z,1.17
2019-01-02T05:27:02.436Z,1.30
2019-01-02T05:29:31.018Z,1.53
2019-01-02T05:31:59.776Z,1.63
2019-01-02T05:34:28.294Z,1.50
2019-01-02T05:36:56.817Z,1.50
2019-01-02T05:39:25.461Z,1.60
2019-01-02T05:41:53.988Z,1.73
2019-01-02T05:44:22.808Z,1.40
2019-01-02T05:46:51.412Z,1.10
2019-01-02T05:49:20.004Z,1.27
2019-01-02T05:51:48.569Z,1.20
2019-01-02T05:54:17.237Z,1.40
2019-01-02T05:56:45.768Z,1.17
2019-01-02T05:59:14.296Z,1.17
2019-01-02T06:01:42.877Z,1.40
2019-01-02T06:04:11.753Z,1.20
2019-01-02T06:06:40.271Z,0.67
2019-01-02T06:09:09.601Z,0.87
2019-01-02T06:11:38.169Z,1.00
2019-01-02T06:14:06.739Z,1.20
2019-01-02T06:16:35.553Z,1.50
2019-01-02T06:19:05.196Z,1.30
2019-01-02T06:21:33.780Z,1.60
2019-01-02T06:24:02.624Z,1.40
2019-01-02T06:26:31.542Z,1.20
2019-01-02T06:29:01.785Z,2.10
2019-01-02T06:31:30.370Z,1.80
2019-01-02T06:33:58.889Z,1.60
2019-01-02T06:36:27.717Z,1.90
2019-01-02T06:38:56.369Z,1.20
2019-01-02T06:41:24.978Z,1.80
2019-01-02T06:43:53.546Z,1.20
2019-01-02T06:46:22.074Z,1.30
2019-01-02T06:48:50.594Z,1.13
2019-01-02T06:51:19.775Z,1.23
2019-01-02T06:53:49.440Z,1.23
2019-01-02T06:56:17.162Z,1.23
2019-01-02T06:58:45.993Z,1.63
2019-01-02T07:01:14.797Z,1.33
2019-01-02T07:03:43.565Z,1.10
2019-01-02T07:06:12.145Z,0.80
2019-01-02T07:08:41.069Z,1.30
2019-01-02T07:11:09.664Z,1.53
2019-01-02T07:13:38.697Z,1.10
2019-01-02T07:16:07.309Z,1.50
2019-01-02T07:18:35.873Z,1.03
2019-01-02T07:21:04.764Z,1.40
2019-01-02T07:23:34.132Z,2.70
2019-01-02T07:26:02.913Z,1.70
2019-01-02T07:28:31.417Z,4.90
2019-01-02T07:31:00.137Z,1.67
2019-01-02T07:33:37.829Z,1.57
2019-01-02T07:36:22.365Z,1.37
2019-01-02T07:39:11.337Z,1.07
2019-01-02T07:41:53.933Z,1.50
2019-01-02T07:44:46.702Z,1.10
2019-01-02T07:48:35.901Z,1.27
2019-01-02T07:51:46.913Z,1.60
2019-01-02T07:54:33.367Z,2.20
2019-01-02T07:59:15.397Z,1.90
2019-01-02T08:01:55.077Z,1.70
2019-01-02T08:04:49.335Z,2.10
2019-01-02T08:07:32.655Z,2.07
2019-01-02T08:10:15.183Z,1.40
2019-01-02T08:13:01.644Z,2.80
2019-01-02T08:15:40.013Z,2.10
2019-01-02T08:18:41.136Z,2.53
2019-01-02T08:21:43.393Z,2.90
2019-01-02T08:24:23.501Z,3.33
2019-01-02T08:28:05.292Z,2.80
2019-01-02T08:30:46.721Z,3.20
2019-01-02T08:33:32.100Z,2.80
2019-01-02T08:36:21.140Z,1.90
2019-01-02T08:39:05.917Z,2.10
2019-01-02T08:43:54.332Z,2.30
2019-01-02T08:47:06.164Z,2.50
2019-01-02T08:53:49.992Z,2.37
2019-01-02T08:56:28.312Z,2.22
2019-01-02T08:59:06.916Z,1.87
2019-01-02T09:02:53.023Z,1.77
2019-01-02T09:05:35.616Z,1.60
2019-01-02T09:10:19.291Z,1.97
2019-01-02T09:13:14.613Z,2.03
2019-01-02T09:16:57.003Z,2.53
2019-01-02T09:19:47.420Z,2.03
2019-01-02T09:24:28.484Z,2.30
2019-01-02T09:27:14.763Z,2.20
2019-01-02T09:32:06.823Z,2.67
2019-01-02T09:34:47.329Z,3.57
2019-01-02T09:37:34.535Z,4.20
2019-01-02T09:40:15.026Z,3.37
2019-01-02T09:42:57.104Z,2.87
2019-01-02T09:45:43.175Z,2.20
2019-01-02T09:48:29.321Z,2.90
2019-01-02T09:51:08.843Z,3.03
2019-01-02T09:54:49.524Z,2.27
2019-01-02T09:57:42.072Z,3.20
2019-01-02T10:00:27.951Z,4.07
2019-01-02T10:03:08.367Z,3.53
2019-01-02T10:05:48.775Z,2.43
2019-01-02T10:10:29.628Z,2.87
2019-01-02T10:13:12.151Z,2.33
2019-01-02T10:15:51.367Z,4.80
2019-01-02T10:18:31.915Z,4.53
2019-01-02T10:21:18.531Z,2.70
2019-01-02T10:25:18.592Z,2.37
2019-01-02T10:30:00.647Z,2.53
2019-01-02T10:32:39.855Z,2.70
2019-01-02T10:35:31.332Z,4.37
2019-01-02T10:40:12.523Z,3.43
2019-01-02T10:43:00.695Z,3.30
2019-01-02T10:45:53.220Z,5.03
2019-01-02T10:48:32.931Z,3.37
2019-01-02T10:53:29.263Z,2.43
2019-01-02T11:00:17.831Z,2.23
2019-01-02T11:03:09.752Z,2.53
2019-01-02T11:06:05.102Z,3.70
2019-01-02T11:08:48.471Z,3.80
2019-01-02T11:12:25.347Z,4.33
2019-01-02T11:15:46.235Z,2.97
2019-01-02T11:18:28.747Z,2.45
2019-01-02T11:23:15.259Z,2.27
2019-01-02T11:26:14.475Z,2.23
2019-01-02T11:28:55.873Z,2.77
2019-01-02T11:31:38.170Z,2.13
2019-01-02T11:35:22.254Z,2.17
2019-01-02T11:38:23.125Z,2.07
2019-01-02T11:43:11.970Z,1.50
2019-01-02T11:45:40.490Z,1.67
2019-01-02T11:48:08.970Z,2.47
2019-01-02T11:50:37.418Z,1.87
2019-01-02T11:53:06.082Z,1.60
2019-01-02T11:55:34.546Z,2.20
2019-01-02T11:58:03.010Z,2.23
2019-01-02T12:00:31.490Z,2.30
2019-01-02T12:03:00.300Z,2.67
2019-01-02T12:05:28.765Z,1.70
2019-01-02T12:07:57.302Z,1.77
2019-01-02T12:10:25.881Z,2.47
2019-01-02T12:12:54.349Z,2.63
2019-01-02T12:15:22.967Z,3.10
2019-01-02T12:17:51.421Z,2.33
2019-01-02T12:20:19.897Z,4.03
2019-01-02T12:22:48.798Z,1.77
2019-01-02T12:25:17.266Z,1.80
2019-01-02T12:27:45.730Z,2.07
2019-01-02T12:30:15.341Z,2.03
2019-01-02T12:32:43.869Z,3.13
2019-01-02T12:35:12.349Z,2.40
2019-01-02T12:37:40.858Z,2.23
2019-01-02T12:40:09.849Z,1.93
2019-01-02T12:42:38.326Z,1.90
2019-01-02T12:45:07.660Z,2.40
2019-01-02T12:47:36.237Z,2.23
2019-01-02T12:50:06.073Z,2.90
2019-01-02T12:52:34.571Z,3.20
2019-01-02T12:55:03.690Z,1.90
2019-01-02T12:57:31.589Z,2.00
2019-01-02T13:00:00.135Z,1.67
2019-01-02T13:04:44.229Z,1.67
2019-01-02T13:07:29.593Z,1.60
2019-01-02T13:11:12.301Z,2.23
2019-01-02T13:13:54.558Z,1.97
2019-01-02T13:17:35.131Z,1.97
2019-01-02T13:21:20.453Z,3.10
2019-01-02T13:23:56.721Z,3.03
2019-01-02T13:26:33.044Z,1.80
2019-01-02T13:29:14.885Z,2.50
2019-01-02T13:31:53.650Z,1.43
2019-01-02T13:35:06.363Z,2.37
2019-01-02T13:38:07.273Z,2.10
2019-01-02T13:43:23.180Z,2.37
2019-01-02T13:46:00.949Z,1.93
2019-01-02T13:50:45.625Z,1.97
2019-01-02T13:53:14.452Z,2.37
2019-01-02T13:55:43.030Z,2.10
2019-01-02T13:58:11.605Z,3.20
2019-01-02T14:00:40.192Z,2.50
2019-01-02T14:03:08.744Z,1.77
2019-01-02T14:05:40.632Z,2.43
2019-01-02T14:08:09.292Z,2.07
2019-01-02T14:10:37.833Z,2.63
2019-01-02T14:13:06.396Z,2.23
2019-01-02T14:15:34.944Z,2.10
2019-01-02T14:18:03.524Z,2.77
2019-01-02T14:20:32.081Z,1.70
2019-01-02T14:23:01.213Z,2.70
2019-01-02T14:25:30.152Z,3.13
2019-01-02T14:27:58.972Z,2.13
2019-01-02T14:30:27.500Z,2.00
2019-01-02T14:32:56.072Z,3.10
2019-01-02T14:35:24.700Z,2.63
2019-01-02T14:37:53.424Z,3.20
2019-01-02T14:40:22.184Z,2.00
2019-01-02T14:42:51.352Z,2.10
2019-01-02T14:45:20.128Z,1.80
2019-01-02T14:47:48.994Z,2.13
2019-01-02T14:50:17.774Z,2.80
2019-01-02T14:52:46.544Z,2.57
2019-01-02T14:55:15.208Z,2.37
2019-01-02T14:57:43.851Z,1.97
2019-01-02T15:00:13.608Z,2.30
2019-01-02T15:02:42.571Z,2.43
2019-01-02T15:05:11.336Z,2.53
2019-01-02T15:07:41.348Z,1.83
2019-01-02T15:10:12.951Z,3.00
2019-01-02T15:12:41.567Z,2.37
2019-01-02T15:15:11.058Z,3.20
2019-01-02T15:17:39.780Z,2.63
2019-01-02T15:20:10.171Z,2.70
2019-01-02T15:22:38.759Z,1.80
2019-01-02T15:25:08.703Z,3.10
2019-01-02T15:27:38.511Z,5.97
2019-01-02T15:30:10.397Z,4.10
2019-01-02T15:32:39.355Z,3.33
2019-01-02T15:35:08.143Z,2.87
2019-01-02T15:37:36.663Z,2.50
2019-01-02T15:40:07.890Z,3.47
2019-01-02T15:42:36.451Z,2.20
2019-01-02T15:45:05.539Z,2.63
2019-01-02T15:47:34.126Z,2.53
2019-01-02T15:50:03.019Z,4.13
2019-01-02T15:52:31.708Z,2.70
2019-01-02T15:55:00.395Z,2.20
2019-01-02T15:57:29.247Z,3.03
2019-01-02T15:59:57.826Z,1.80
2019-01-02T16:02:26.459Z,3.60
2019-01-02T16:04:55.220Z,2.53
2019-01-02T16:07:23.990Z,2.50
2019-01-02T16:09:52.684Z,3.30
2019-01-02T16:12:21.223Z,4.42
2019-01-02T16:14:49.952Z,2.50
2019-01-02T16:17:18.523Z,2.47
2019-01-02T16:19:47.439Z,2.07
2019-01-02T16:22:15.991Z,1.70
2019-01-02T16:24:44.673Z,2.37
2019-01-02T16:27:13.335Z,3.13
2019-01-02T16:29:42.426Z,2.43
2019-01-02T16:32:10.938Z,3.03
2019-01-02T16:34:39.777Z,2.77
2019-01-02T16:37:08.917Z,1.80
2019-01-02T16:39:37.512Z,1.77
2019-01-02T16:42:06.185Z,1.90
2019-01-02T16:44:34.696Z,2.00
2019-01-02T16:47:03.796Z,2.83
2019-01-02T16:49:32.403Z,2.70
2019-01-02T16:52:00.980Z,1.87
2019-01-02T16:54:29.460Z,2.10
2019-01-02T16:56:57.944Z,2.27
2019-01-02T16:59:26.684Z,2.20
2019-01-02T17:01:55.444Z,1.60
2019-01-02T17:04:24.040Z,1.60
2019-01-02T17:06:52.652Z,2.20
2019-01-02T17:09:21.357Z,2.00
2019-01-02T17:11:49.960Z,1.40
2019-01-02T17:14:18.688Z,1.67
2019-01-02T17:16:47.420Z,2.00
2019-01-02T17:19:16.088Z,1.30
2019-01-02T17:21:44.705Z,2.10
2019-01-02T17:24:14.446Z,1.93
2019-01-02T17:26:43.335Z,1.80
2019-01-02T17:29:12.213Z,2.17
2019-01-02T17:31:40.763Z,1.67
2019-01-02T17:34:09.473Z,2.20
2019-01-02T17:36:38.085Z,2.83
2019-01-02T17:39:07.939Z,1.83
2019-01-02T17:41:36.447Z,1.73
2019-01-02T17:44:05.163Z,2.40
2019-01-02T17:46:33.692Z,2.60
2019-01-02T17:49:02.446Z,2.50
2019-01-02T17:51:31.250Z,2.77
2019-01-02T17:53:59.771Z,1.60
2019-01-02T17:56:28.750Z,2.00
2019-01-02T17:58:57.265Z,2.03
2019-01-02T18:01:33.326Z,1.73
2019-01-02T18:04:04.302Z,1.93
2019-01-02T18:06:32.834Z,1.40
2019-01-02T18:09:01.294Z,1.50
2019-01-02T18:11:30.037Z,1.40
2019-01-02T18:13:58.590Z,1.70
2019-01-02T18:16:27.078Z,1.47
2019-01-02T18:18:55.625Z,1.50
2019-01-02T18:21:24.076Z,1.40
2019-01-02T18:23:52.586Z,1.67
2019-01-02T18:26:21.014Z,1.07
2019-01-02T18:28:49.505Z,1.40
2019-01-02T18:31:18.109Z,1.50
2019-01-02T18:33:46.731Z,1.87
2019-01-02T18:36:15.546Z,1.60
2019-01-02T18:38:44.286Z,2.07
2019-01-02T18:41:12.978Z,2.00
2019-01-02T18:43:41.514Z,1.80
2019-01-02T18:46:10.194Z,1.97
2019-01-02T18:48:38.934Z,1.17
2019-01-02T18:51:07.578Z,1.90
2019-01-02T18:53:36.166Z,2.10
2019-01-02T18:56:04.924Z,2.23
2019-01-02T18:58:33.522Z,2.60
2019-01-02T19:01:02.264Z,2.40
2019-01-02T19:03:30.756Z,2.80
2019-01-02T19:05:59.471Z,3.87
2019-01-02T19:08:27.944Z,1.40
2019-01-02T19:10:56.781Z,1.10
2019-01-02T19:13:25.336Z,1.90
2019-01-02T19:15:53.974Z,2.03
2019-01-02T19:18:22.511Z,1.67
2019-01-02T19:20:51.459Z,1.53
2019-01-02T19:23:20.021Z,1.47
2019-01-02T19:25:48.619Z,1.40
2019-01-02T19:28:17.204Z,1.53
2019-01-02T19:30:45.716Z,1.57
2019-01-02T19:33:19.016Z,1.30
2019-01-02T19:35:47.591Z,1.30
2019-01-02T19:38:16.157Z,1.90
2019-01-02T19:40:44.701Z,1.67
2019-01-02T19:43:13.269Z,2.37
2019-01-02T19:45:41.753Z,1.80
2019-01-02T19:48:10.453Z,1.80
2019-01-02T19:50:39.080Z,1.30
2019-01-02T19:53:08.217Z,1.60
2019-01-02T19:55:37.128Z,2.40
2019-01-02T19:58:05.904Z,1.40
2019-01-02T20:00:34.530Z,1.53
2019-01-02T20:03:03.158Z,1.27
2019-01-02T20:05:31.850Z,1.27
2019-01-02T20:08:00.354Z,1.20
2019-01-02T20:10:28.973Z,1.50
2019-01-02T20:12:57.478Z,1.17
2019-01-02T20:15:26.070Z,1.23
2019-01-02T20:17:54.550Z,1.73
2019-01-02T20:20:23.126Z,1.40
2019-01-02T20:22:51.909Z,1.40
2019-01-02T20:25:20.467Z,0.97
2019-01-02T20:27:49.600Z,1.70
2019-01-02T20:30:18.173Z,1.57
2019-01-02T20:32:46.874Z,2.33
2019-01-02T20:35:15.396Z,1.47
2019-01-02T20:37:44.229Z,1.80
2019-01-02T20:40:13.055Z,1.37
2019-01-02T20:42:41.649Z,1.70
2019-01-02T20:45:10.164Z,1.67
2019-01-02T20:47:38.732Z,1.90
2019-01-02T20:50:09.095Z,1.10
2019-01-02T20:52:37.627Z,1.50
2019-01-02T20:55:06.519Z,1.53
2019-01-02T20:57:35.527Z,1.83
2019-01-02T21:00:05.211Z,1.70
2019-01-02T21:02:33.734Z,1.73
2019-01-02T21:05:02.230Z,1.33
2019-01-02T21:07:30.726Z,1.40
2019-01-02T21:09:59.774Z,1.43
2019-01-02T21:12:28.338Z,1.30
2019-01-02T21:14:56.816Z,1.23
2019-01-02T21:17:25.442Z,1.27
2019-01-02T21:19:54.050Z,1.10
2019-01-02T21:22:22.714Z,1.00
2019-01-02T21:24:51.422Z,1.10
2019-01-02T21:27:19.910Z,1.00
2019-01-02T21:29:48.519Z,1.50
2019-01-02T21:32:17.635Z,1.30
2019-01-02T21:34:46.117Z,1.47
2019-01-02T21:37:14.845Z,1.20
2019-01-02T21:39:43.748Z,1.33
2019-01-02T21:42:12.269Z,1.00
2019-01-02T21:44:41.097Z,1.10
2019-01-02T21:47:09.669Z,1.50
2019-01-02T21:49:38.192Z,1.23
2019-01-02T21:52:06.689Z,1.40
2019-01-02T21:54:35.552Z,1.33
2019-01-02T21:57:04.745Z,1.07
2019-01-02T21:59:33.216Z,1.33
2019-01-02T22:02:01.808Z,1.03
2019-01-02T22:04:30.287Z,1.40
2019-01-02T22:06:58.855Z,1.40
2019-01-02T22:09:27.520Z,1.40
2019-01-02T22:11:56.018Z,1.33
2019-01-02T22:14:28.064Z,0.83
2019-01-02T22:16:56.576Z,1.30
2019-01-02T22:19:25.353Z,0.93
2019-01-02T22:21:53.868Z,1.10
2019-01-02T22:24:22.396Z,2.30
2019-01-02T22:26:50.876Z,1.03
2019-01-02T22:29:20.149Z,1.33
2019-01-02T22:31:49.273Z,1.77
2019-01-02T22:34:17.801Z,1.50
2019-01-02T22:36:46.292Z,1.30
2019-01-02T22:39:14.808Z,1.10
2019-01-02T22:41:43.600Z,1.37
2019-01-02T22:44:12.156Z,0.70
2019-01-02T22:46:40.692Z,0.73
2019-01-02T22:49:09.455Z,1.00
2019-01-02T22:51:38.024Z,1.90
2019-01-02T22:54:06.508Z,1.53
2019-01-02T22:56:35.278Z,1.40
2019-01-02T22:59:05.281Z,1.80
2019-01-02T23:01:38.857Z,2.07
2019-01-02T23:04:11.837Z,1.20
2019-01-02T23:06:45.441Z,1.40
2019-01-02T23:09:53.682Z,1.67
2019-01-02T23:12:35.174Z,0.90
2019-01-02T23:17:13.877Z,0.80
2019-01-02T23:20:47.869Z,1.20
2019-01-02T23:25:27.042Z,1.20
2019-01-02T23:28:00.657Z,1.00
2019-01-02T23:30:39.365Z,1.20
2019-01-02T23:33:16.937Z,1.07
2019-01-02T23:35:50.733Z,1.13
2019-01-02T23:38:25.341Z,1.10
2019-01-02T23:42:01.525Z,0.80
2019-01-02T23:44:36.225Z,1.10
2019-01-02T23:49:11.709Z,1.27
2019-01-02T23:52:44.701Z,1.20
2019-01-02T23:55:18.562Z,0.73
2019-01-02T23:57:52.237Z,0.87
